Мельница

Карта отелей и гостиниц, располагающихся рядом с аэропортом Мельница :

Мельница
Переславль Залесский
Ярославская область 56° 41' 57.48" N, 38° 49' 31.8" E
Код аэродрома ИКАО
ZAB5
Код аэродрома RU
ЗАБ5
Координаты
N56.69930° E038.82550°
Превышение над уровнем моря
178
Основная полоса
08/26
Курс магнитный
079,1/259,1
Длина основной ВПП
524
Ширина основной ВПП
18
Покрытие основной ВПП
Нетвёрдое (грунт)
Освещение ВПП
Нет
Тип: 
Аэродром
Класс аэродрома: 
Принадлежность: 
АОН
Статус: 
Недействующий
Сайт: 
www.flyw.ru
E-mail аэродрома: 
FlyCat7@ya.ru
Страна: 
Россия
Регион: 
Ярославская область
Город: 
Переславль Залесский
Дополнительная информация: 
Аэродром закрыт. Поперек ГВПП установлены бетонные блоки, маркировочные знаки демонтированы. Ведется вспашка земли. Посадка самолетов и аппаратов СЛА невозможна.

Найти трансфер

С помощью этой формы Вы можете найти трансфер из аэропорта Мельница в город, аэропорт или вокзал:

Карта места

Javascript is required to view this map.

Погода в аэропортах:

Авиационная погода в Емельяново

Регион: 
Погода METAR: 
UNKL 281300Z 25007MPS 6000 -SHSN SCT041CB M05/M08 Q1026 R29/810245 NOSIG RMK QFE743
Время наблюдения
2021-11-28T13:00:00Z
Температура C
-5.0
Точка росы
-8.0
Направление ветра
250
Скорость ветра (узлы)
14
Метео видимость
3.73
Явления погоды
-SHSN
Условия полета
MVFR
Аэропорт подробнее: 

Авиационная погода в Воронеже

Регион: 
Погода METAR: 
UUOO 281300Z 13002MPS 0250 0200NE R12/0550N FG VV000 06/06 Q1009 R12/290155 NOSIG RMK QBB020 QFE743
Время наблюдения
2021-11-28T13:00:00Z
Температура C
6.0
Точка росы
6.0
Направление ветра
130
Скорость ветра (узлы)
4
Метео видимость
0.16
Явления погоды
FG
Условия полета
LIFR
Аэропорт подробнее: 

Авиационная погода в Кривом Роге

Регион: 
Погода METAR: 
UKDR 281300Z 14005MPS 0450 R18/0900N FG VV002 09/09 Q1005 BECMG 0500 FG VV002
Время наблюдения
2021-11-28T13:00:00Z
Температура C
9.0
Точка росы
9.0
Направление ветра
140
Скорость ветра (узлы)
10
Метео видимость
0.28
Явления погоды
FG
Условия полета
LIFR
Аэропорт подробнее: 

Авиационная погода в Гродно

Регион: 
Погода METAR: 
UMMG 281100Z 14003MPS 5000 BR SCT020 OVC100 02/M00 Q1000 NOSIG
Время наблюдения
2021-11-28T11:00:00Z
Температура C
2.0
Точка росы
0.0
Направление ветра
140
Скорость ветра (узлы)
6
Метео видимость
3.11
Явления погоды
BR
Условия полета
MVFR
Аэропорт подробнее: